Almena, Wisconsin
Current Conditions -  °F | °C
As of 9:15 PM on Wednesday 22 Oct 2014 (Local Time) from KUBE Reporting Station
Broken Clouds Broken Clouds  
Wind Chill: 11°   Ceiling: 6000
Heat Index: 11°   Visibility: 10mi
Dew Point:   Wind: 12mph
Humidity: 50%   Direction: 160°SSE
Pressure: 30.09"   Gusts: 17mph
Location:  45.42°N, 92.03°W
Report Text: KUBE 230215Z AUTO 16010G15KT 10SM BKN060 BKN070 11/01 A3009 RMK AO2
Loading
Personal Weather Stations






























Interactive Weather Map
Tropical Storm Tracking
New forecast layout! Learn more

10-Day Weather Forecast

Advertisements
Track Severe Weather on mobile